首页
METAR-TAF:

METAR-TAF

机场 :

杜尚别机场

杜尚别, 塔吉克斯坦

纬度: 38-33N, 经度: 068-47E, 海拔: 803米

当前天气观测

该预报发布于25分钟前的17:30 UTC
风速4节,风向
温度 23°C
湿度 41%
气压 1007 hPa
能见度10公里或以上
少量云层高于6600英尺

METAR: UTDD 231730Z 08002MPS 9999 FEW066 23/09 Q1007 R09/D NOSIG RMK QFE688/0917

时间: 22:55 (17:55 UTC)

预报

该预报发布于2小时和55分钟前的15:00 UTC
预报有效从23日的 16点(UTC)到 24日的 04点(UTC)
风速4节,风向多变
能見度: 6000
少量云层高于6600英尺, 积雨云.
散云层高于10000英尺
几率 40% :
短暂存在
从 23日的 16点(UTC)到 23日的 19点(UTC)
雷暴

TAF: UTDD 231500Z 2316/2404 VRB02MPS 6000 FEW066CB SCT100 PROB40 TEMPO 2316/2319 TS

超过4000个机场的气象观测和天气预报(METAR&TAF报告)。

可查询的气象台以黄色和红色小点在地图上表示。

将鼠标移到小点上方,可查看气象台名称。

然后点击查看天气观测和预报。

如需切换地图:点击带黑十字的绿色按钮放大地图;点击带横线的绿色按钮缩小地图;或者点击绿色箭头查看邻近地区的地图。


METAR-TAF: